Truckee, CA

2:14 PM PDT on September 22, 2014 (GMT -0700)
Carson | Change Station
CLOSE
Current Station
Airport
Location: Carson City,
Elevation: 4705 ft
Nearby Weather Stations

Elev 4705 ft 39.19 °N, 119.73 °W | Updated 19 minutes ago

Partly Cloudy
Partly Cloudy
81 °F
Feels Like 81 °F
N
4
Wind Variable Wind from ESE

Today
High -- | Low -- °F
--% Chance of Precip.
Yesterday
High -- | Low -- °F
Precip. -- in
6:48 AM 6:57 PM
Waning Crescent, 2% visible
Pressure 30.12 in
Visibility 10.0 miles
Clouds Clear
Dew Point 39 °F
Humidity 23%
Rainfall 0.00 in
Snow Depth 0 in , 0 in , 0 in
UV 8 out of 12
Pollen 6.70 out of 12
Air Quality Not available.
Flu Activity Not available.
METAR KCXP 222055Z AUTO 12003KT 10SM CLR 27/04 A3012 RMK AO2

More Conditions Fewer Conditions

Pressure 30.12 in
Visibility 10.0 miles
Clouds Clear
Dew Point 39 °F
Humidity 23%
Rainfall 0.00 in
Snow Depth 0 in , 0 in , 0 in
UV 8 out of 12
Pollen 6.70 out of 12
Air Quality Not available.
Flu Activity Not available.
METAR KCXP 222055Z AUTO 12003KT 10SM CLR 27/04 A3012 RMK AO2

More Conditions Fewer Conditions

10-Day Weather Forecast

Almanac

Astronomy

Sep. 22, 2014 Rise Set
Actual Time 6:48 AM PDT 6:57 PM PDT
Civil Twilight 6:21 AM PDT 7:24 PM PDT
Nautical Twilight 5:50 AM PDT 7:55 PM PDT
Astronomical Twilight 5:18 AM PDT 8:27 PM PDT
Moon 5:22 AM PDT 6:07 PM PDT
Length of Visible Light 13h 02m
Length of Day
12h 09m
Tomorrow will be 2m 32s shorter.
Waning Crescent, 2% of the Moon is Illuminated
Today
Waning Crescent
Sep 24
New
Oct 1
First Quarter
Oct 8
Full
Oct 15
Last Quarter

Today's Extremes

State Highs State Lows

Community

WunderPhotos

Upload Photos

1,755,533 photos uploaded!

Nearby

Snow Depth

Station Depth Elevation
Summit Meadow 0 in 9122 ft
Rubicon #2 0 in 7500 ft
Adin Mountain 0 in 6200 ft
CSS Lab 3 in 6900 ft
Leavitt Meadows 0 in 7200 ft

Earthquake Activity

City Distance Mag. Time & Date
Livermore, California 141 miles 2.6 3:37 AM PDT
2014-09-19
Minimum magnitude displayed is 2.5.

Coastal Water Temperatures

Place Temperature
No Stations Reporting

Nearby Weather Stations